Time;durP1;ratioP1;P1;durP2;ratioP2;P2;SDS_P1;SDS_P2;PMS_P1;PMS_P2;Temp;Humidity;BMP_temperature;BMP_pressure;BME280_temperature;BME280_humidity;BME280_pressure;Samples;Min_cycle;Max_cycle;Signal;HPM_P1;HPM_P2
2022/10/28 00:01:40;;;;;;;21.05;7.68;;;18.90;74.80;;;;;;7394472;19;20074;-79
2022/10/28 00:04:10;;;;;;;25.98;7.70;;;18.90;74.80;;;;;;7370124;19;20065;-78
2022/10/28 00:06:39;;;;;;;22.95;6.60;;;18.90;74.90;;;;;;7373299;19;20090;-79
2022/10/28 00:09:07;;;;;;;20.60;7.43;;;18.90;74.70;;;;;;7371541;19;20021;-79
2022/10/28 00:11:36;;;;;;;20.90;7.85;;;18.90;74.60;;;;;;7371621;19;20014;-79
2022/10/28 00:14:09;;;;;;;27.50;8.07;;;18.80;74.40;;;;;;7372521;19;20024;-78
2022/10/28 00:16:39;;;;;;;26.65;12.70;;;18.80;74.40;;;;;;7392112;19;20043;-79
2022/10/28 00:19:09;;;;;;;37.33;16.88;;;18.80;74.40;;;;;;7368430;19;20018;-79
2022/10/28 00:21:40;;;;;;;38.37;16.47;;;18.80;74.30;;;;;;7370952;19;20029;-79
2022/10/28 00:24:10;;;;;;;33.05;14.20;;;18.80;74.40;;;;;;7372413;19;20323;-79
2022/10/28 00:26:41;;;;;;;37.47;13.43;;;18.80;74.40;;;;;;7372217;19;20078;-79
2022/10/28 00:29:14;;;;;;;24.63;10.60;;;18.80;74.20;;;;;;7376721;19;20015;-79
2022/10/28 00:31:43;;;;;;;19.23;7.85;;;18.70;74.30;;;;;;7394715;19;20018;-79
2022/10/28 00:34:16;;;;;;;24.25;7.72;;;18.70;74.20;;;;;;7371472;19;20033;-80
2022/10/28 00:36:47;;;;;;;32.95;8.95;;;18.70;74.30;;;;;;7378247;19;20018;-80
2022/10/28 00:39:19;;;;;;;25.40;7.97;;;18.70;74.40;;;;;;7379866;19;20018;-79
2022/10/28 00:41:50;;;;;;;23.48;8.10;;;18.70;74.30;;;;;;7374146;19;20081;-79
2022/10/28 00:44:51;;;;;;;25.60;6.97;;;18.70;74.40;;;;;;7380056;19;20022;-79
2022/10/28 00:47:33;;;;;;;31.63;7.93;;;18.70;74.50;;;;;;7373219;19;20038;-79
2022/10/28 00:50:19;;;;;;;30.85;7.40;;;18.60;74.50;;;;;;7371403;19;20015;-79
2022/10/28 00:52:52;;;;;;;31.73;6.88;;;18.60;74.50;;;;;;7390524;19;20022;-79
2022/10/28 00:55:22;;;;;;;24.55;6.78;;;18.60;74.70;;;;;;7369177;19;20113;-79
2022/10/28 00:57:55;;;;;;;23.43;6.23;;;18.60;74.70;;;;;;7371250;19;20028;-80
2022/10/28 01:00:27;;;;;;;22.27;6.90;;;18.60;74.90;;;;;;7369369;19;20029;-79
2022/10/28 01:02:56;;;;;;;26.10;6.25;;;18.60;75.50;;;;;;7370896;19;20557;-79
2022/10/28 01:05:32;;;;;;;22.80;5.85;;;18.60;75.70;;;;;;7370015;19;20330;-79
2022/10/28 01:08:07;;;;;;;19.88;6.13;;;18.60;75.20;;;;;;7369279;19;20022;-79
2022/10/28 01:11:00;;;;;;;25.83;6.30;;;18.60;74.60;;;;;;7392957;19;20688;-79
2022/10/28 01:13:40;;;;;;;23.58;6.75;;;18.60;74.30;;;;;;7368044;19;20449;-80
2022/10/28 01:16:24;;;;;;;23.55;7.22;;;18.60;74.10;;;;;;7367673;19;20086;-80
2022/10/28 01:19:05;;;;;;;22.63;7.38;;;18.60;73.90;;;;;;7368110;19;20118;-78
2022/10/28 01:22:08;;;;;;;31.63;8.38;;;18.60;73.60;;;;;;7371834;19;20018;-78
2022/10/28 01:24:56;;;;;;;30.27;9.65;;;18.60;73.50;;;;;;7371242;19;20026;-78
2022/10/28 01:27:55;;;;;;;24.33;8.38;;;18.50;73.10;;;;;;7370416;19;20019;-79
2022/10/28 01:30:25;;;;;;;21.58;8.40;;;18.50;73.20;;;;;;7370810;19;20018;-78
2022/10/28 01:33:04;;;;;;;19.38;7.65;;;18.50;73.30;;;;;;7367898;19;20528;-79
2022/10/28 01:35:41;;;;;;;24.95;7.20;;;18.40;73.50;;;;;;7369081;19;20044;-78
2022/10/28 01:38:33;;;;;;;26.73;7.40;;;18.40;74.20;;;;;;7370134;19;20094;-78
2022/10/28 01:41:09;;;;;;;36.20;7.90;;;18.40;73.60;;;;;;7368231;19;20443;-78
2022/10/28 01:43:44;;;;;;;18.30;7.03;;;18.40;73.40;;;;;;7390133;19;20033;-79
2022/10/28 01:46:17;;;;;;;24.35;7.22;;;18.40;73.90;;;;;;7369146;19;20022;-78
2022/10/28 01:48:54;;;;;;;28.73;6.55;;;18.40;74.10;;;;;;7368919;19;20121;-78
2022/10/28 01:51:30;;;;;;;20.50;6.93;;;18.40;74.10;;;;;;7368173;19;20078;-78
2022/10/28 01:54:03;;;;;;;17.33;5.72;;;18.40;73.90;;;;;;7368211;19;20017;-79
2022/10/28 01:56:36;;;;;;;21.52;6.28;;;18.40;74.10;;;;;;7368985;19;20099;-78
2022/10/28 01:59:07;;;;;;;22.73;7.07;;;18.40;74.50;;;;;;7368921;19;20022;-78
2022/10/28 02:01:37;;;;;;;30.45;7.93;;;18.40;74.50;;;;;;7390354;19;20022;-78
2022/10/28 02:04:09;;;;;;;26.38;6.13;;;18.40;74.50;;;;;;7368828;19;20021;-78
2022/10/28 02:06:38;;;;;;;;;;;18.40;74.70;;;;;;7369490;19;20029;-78
2022/10/28 02:09:27;;;;;;;22.17;6.28;;;18.50;75.10;;;;;;7367882;19;19918;-78
2022/10/28 02:12:13;;;;;;;22.50;6.15;;;18.40;75.10;;;;;;7367115;19;20014;-78
2022/10/28 02:15:07;;;;;;;17.65;6.72;;;18.40;75.20;;;;;;7373860;19;20034;-78
2022/10/28 02:17:45;;;;;;;28.45;6.07;;;18.40;74.90;;;;;;7377331;19;20026;-78
2022/10/28 02:20:25;;;;;;;18.77;5.82;;;18.30;74.30;;;;;;7369945;19;20022;-77
2022/10/28 02:22:58;;;;;;;20.67;6.78;;;18.30;74.00;;;;;;7386617;19;20093;-77
2022/10/28 02:25:33;;;;;;;16.45;6.13;;;18.30;73.60;;;;;;7395799;19;20022;-79
2022/10/28 02:28:07;;;;;;;24.48;6.13;;;18.30;73.60;;;;;;7374066;19;20505;-78
2022/10/28 02:30:43;;;;;;;21.75;5.85;;;18.30;73.60;;;;;;7368405;19;20021;-78
2022/10/28 02:33:16;;;;;;;20.85;6.68;;;18.20;73.40;;;;;;7367244;19;20479;-79
2022/10/28 02:35:52;;;;;;;26.48;6.50;;;18.30;73.30;;;;;;7369918;19;20014;-79
2022/10/28 02:38:27;;;;;;;26.00;6.53;;;18.30;73.10;;;;;;7366982;19;20537;-79
2022/10/28 02:41:01;;;;;;;27.42;6.55;;;18.20;73.20;;;;;;7368573;19;20040;-78
2022/10/28 02:43:34;;;;;;;22.70;6.35;;;18.20;73.50;;;;;;7387693;19;20028;-79
2022/10/28 02:46:05;;;;;;;15.15;5.53;;;18.20;73.50;;;;;;7365501;19;20097;-79
2022/10/28 02:48:38;;;;;;;23.85;5.70;;;18.20;73.60;;;;;;7367682;19;20111;-79
2022/10/28 02:51:13;;;;;;;25.13;5.93;;;18.20;73.90;;;;;;7366144;19;20029;-79
2022/10/28 02:53:52;;;;;;;20.70;5.80;;;18.20;74.20;;;;;;7364499;19;20019;-79
2022/10/28 02:56:22;;;;;;;19.50;5.97;;;18.10;74.00;;;;;;7366639;19;20373;-78
2022/10/28 02:58:51;;;;;;;18.08;6.43;;;18.20;73.80;;;;;;7387417;19;20015;-79
2022/10/28 03:01:20;;;;;;;19.27;5.90;;;18.20;73.60;;;;;;7365464;19;20532;-79
2022/10/28 03:03:49;;;;;;;24.63;6.70;;;18.20;73.40;;;;;;7367371;19;20090;-79
2022/10/28 03:06:20;;;;;;;21.02;6.63;;;18.20;73.30;;;;;;7373241;19;20086;-78
2022/10/28 03:08:49;;;;;;;25.02;6.28;;;18.10;73.20;;;;;;7370644;19;20021;-78
2022/10/28 03:11:18;;;;;;;19.25;6.88;;;18.10;73.10;;;;;;7371169;19;20460;-78
2022/10/28 03:13:47;;;;;;;19.00;6.80;;;18.10;73.90;;;;;;7393927;19;20027;-79
2022/10/28 03:16:16;;;;;;;23.38;5.85;;;18.10;73.00;;;;;;7371096;19;20019;-78
2022/10/28 03:18:45;;;;;;;16.60;6.50;;;18.10;72.90;;;;;;7374665;19;20136;-79
2022/10/28 03:21:13;;;;;;;23.23;5.63;;;18.10;73.10;;;;;;7375283;19;20014;-79
2022/10/28 03:23:45;;;;;;;21.27;6.15;;;18.10;73.00;;;;;;7372890;19;20021;-79
2022/10/28 03:26:13;;;;;;;24.08;6.68;;;18.10;72.70;;;;;;7371912;19;20082;-78
2022/10/28 03:28:42;;;;;;;21.30;6.15;;;18.10;72.90;;;;;;7391111;19;20014;-79
2022/10/28 03:31:11;;;;;;;22.60;6.60;;;18.00;73.00;;;;;;7372439;19;20032;-78
2022/10/28 03:33:40;;;;;;;16.13;6.70;;;18.10;73.30;;;;;;7371314;19;20039;-78
2022/10/28 03:36:09;;;;;;;21.63;6.90;;;18.00;73.10;;;;;;7373593;19;20014;-78
2022/10/28 03:38:38;;;;;;;21.60;6.93;;;18.00;73.00;;;;;;7370728;19;20349;-78
2022/10/28 03:41:10;;;;;;;18.08;6.57;;;18.00;72.80;;;;;;7372994;19;20016;-78
2022/10/28 03:43:38;;;;;;;;;;;18.00;73.70;;;;;;7396346;19;20115;-79
2022/10/28 03:46:07;;;;;;;24.25;6.45;;;18.00;73.10;;;;;;7369673;19;19919;-79
2022/10/28 03:48:36;;;;;;;15.88;6.35;;;18.00;73.10;;;;;;7375205;19;20394;-79
2022/10/28 03:51:05;;;;;;;20.83;6.45;;;18.00;73.20;;;;;;7387418;19;20121;-79
2022/10/28 03:53:33;;;;;;;26.10;6.68;;;18.00;73.30;;;;;;7381373;19;20097;-79
2022/10/28 03:56:03;;;;;;;24.73;7.25;;;18.00;73.10;;;;;;7380450;19;20018;-78
2022/10/28 03:58:34;;;;;;;18.98;6.28;;;18.00;72.80;;;;;;7398808;19;20559;-79
2022/10/28 04:01:03;;;;;;;18.08;6.35;;;18.00;72.60;;;;;;7372159;19;20023;-79
2022/10/28 04:03:32;;;;;;;23.02;6.60;;;17.90;72.70;;;;;;7370848;19;20035;-79
2022/10/28 04:06:04;;;;;;;13.40;5.80;;;17.90;72.80;;;;;;7368898;19;20022;-79
2022/10/28 04:08:33;;;;;;;22.30;5.70;;;17.90;72.90;;;;;;7370521;19;20066;-79
2022/10/28 04:11:01;;;;;;;21.55;6.07;;;17.90;72.80;;;;;;7369764;19;20480;-79
2022/10/28 04:13:30;;;;;;;31.52;6.38;;;17.90;72.80;;;;;;7389186;19;20022;-79
2022/10/28 04:16:01;;;;;;;22.65;6.03;;;17.90;73.10;;;;;;7368285;19;20018;-79
2022/10/28 04:18:30;;;;;;;15.05;6.10;;;17.90;73.30;;;;;;7368388;19;20117;-80
2022/10/28 04:20:59;;;;;;;19.40;5.95;;;17.90;73.10;;;;;;7368154;19;20010;-79
2022/10/28 04:23:28;;;;;;;14.93;5.68;;;17.90;73.30;;;;;;7367508;19;20018;-80
2022/10/28 04:25:57;;;;;;;20.35;6.43;;;17.90;73.20;;;;;;7367978;19;20020;-79
2022/10/28 04:28:26;;;;;;;19.25;5.88;;;17.90;72.90;;;;;;7389563;19;20018;-79
2022/10/28 04:30:55;;;;;;;16.63;5.57;;;17.90;73.00;;;;;;7368926;19;20763;-79
2022/10/28 04:33:26;;;;;;;20.27;6.05;;;17.90;73.00;;;;;;7369758;19;20019;-80
2022/10/28 04:35:55;;;;;;;21.73;6.78;;;17.90;72.80;;;;;;7366994;19;20019;-79
2022/10/28 04:38:24;;;;;;;22.92;6.28;;;17.90;72.60;;;;;;7367822;19;20552;-79
2022/10/28 04:40:53;;;;;;;21.52;6.63;;;17.90;72.60;;;;;;7386492;19;20336;-78
2022/10/28 04:43:21;;;;;;;18.58;7.07;;;17.90;72.50;;;;;;7391200;19;20045;-79
2022/10/28 04:45:50;;;;;;;22.00;7.53;;;17.90;72.50;;;;;;7367917;19;20015;-79
2022/10/28 04:48:19;;;;;;;24.05;7.05;;;17.90;72.50;;;;;;7369968;19;20020;-79
2022/10/28 04:50:51;;;;;;;26.50;7.10;;;17.90;72.70;;;;;;7370154;19;20050;-79
2022/10/28 04:53:19;;;;;;;20.08;7.15;;;17.90;73.00;;;;;;7367333;19;20048;-79
2022/10/28 04:55:48;;;;;;;25.48;6.32;;;17.90;73.10;;;;;;7385896;19;20026;-78
2022/10/28 04:58:17;;;;;;;25.75;7.25;;;17.90;73.00;;;;;;7367707;19;20030;-79
2022/10/28 05:00:45;;;;;;;26.55;7.60;;;17.90;72.80;;;;;;7367389;19;20569;-79
2022/10/28 05:03:14;;;;;;;26.90;7.75;;;17.90;72.70;;;;;;7369106;19;20078;-79
2022/10/28 05:05:43;;;;;;;22.30;7.35;;;17.90;72.60;;;;;;7366463;19;20021;-79
2022/10/28 05:08:14;;;;;;;20.08;7.22;;;17.90;72.70;;;;;;7366708;19;20456;-79
2022/10/28 05:10:47;;;;;;;18.00;7.40;;;17.80;72.70;;;;;;7390227;19;20040;-80
2022/10/28 05:13:16;;;;;;;20.08;7.68;;;17.90;72.60;;;;;;7366689;19;20503;-80
2022/10/28 05:15:45;;;;;;;21.60;7.70;;;17.90;72.70;;;;;;7367364;19;20325;-79
2022/10/28 05:18:13;;;;;;;21.42;7.57;;;17.90;72.70;;;;;;7372294;19;20018;-80
2022/10/28 05:20:42;;;;;;;17.17;7.43;;;17.80;72.60;;;;;;7366409;19;20014;-78
2022/10/28 05:23:14;;;;;;;20.40;7.90;;;17.80;72.60;;;;;;7368934;19;20018;-78
2022/10/28 05:25:44;;;;;;;;;;;17.80;72.50;;;;;;7392815;19;20087;-79
2022/10/28 05:28:12;;;;;;;21.88;8.13;;;17.80;72.40;;;;;;7366482;19;19954;-78
2022/10/28 05:30:41;;;;;;;29.15;8.57;;;17.80;72.30;;;;;;7367068;19;20390;-78
2022/10/28 05:33:10;;;;;;;23.00;9.07;;;17.70;72.40;;;;;;7366001;19;20525;-79
2022/10/28 05:35:39;;;;;;;24.27;8.75;;;17.70;72.50;;;;;;7369417;19;20108;-78
2022/10/28 05:38:08;;;;;;;25.42;9.13;;;17.70;72.60;;;;;;7371905;19;20094;-79
2022/10/28 05:40:39;;;;;;;23.58;9.48;;;17.70;72.40;;;;;;7399287;19;20044;-79
2022/10/28 05:43:08;;;;;;;24.48;9.80;;;17.70;72.40;;;;;;7370424;19;20082;-78
2022/10/28 05:45:36;;;;;;;31.20;11.65;;;17.70;72.40;;;;;;7367662;19;20061;-78
2022/10/28 05:48:06;;;;;;;31.65;10.77;;;17.60;72.40;;;;;;7370324;19;20046;-78
2022/10/28 05:50:34;;;;;;;28.70;9.40;;;17.60;72.40;;;;;;7370936;19;20014;-79
2022/10/28 05:53:03;;;;;;;27.73;10.20;;;17.60;72.40;;;;;;7372515;19;20023;-79
2022/10/28 05:55:34;;;;;;;30.67;9.25;;;17.60;72.40;;;;;;7391537;19;20018;-79
2022/10/28 05:58:05;;;;;;;25.95;8.63;;;17.60;72.20;;;;;;7368978;19;20340;-79
2022/10/28 06:00:34;;;;;;;31.00;9.27;;;17.60;73.00;;;;;;7370546;19;20020;-79
2022/10/28 06:03:08;;;;;;;22.52;7.57;;;17.60;72.30;;;;;;7371094;19;20353;-79
2022/10/28 06:05:37;;;;;;;19.52;8.52;;;17.50;72.40;;;;;;7370036;19;20011;-79
2022/10/28 06:08:07;;;;;;;23.27;8.60;;;17.50;72.50;;;;;;7373175;19;20017;-79
2022/10/28 06:10:36;;;;;;;30.90;8.25;;;17.50;72.30;;;;;;7390875;19;20346;-79
2022/10/28 06:13:07;;;;;;;20.42;8.05;;;17.50;72.40;;;;;;7366301;19;20018;-79
2022/10/28 06:15:36;;;;;;;29.20;8.45;;;17.50;72.80;;;;;;7367875;19;20426;-79
2022/10/28 06:18:05;;;;;;;18.30;8.30;;;17.50;73.50;;;;;;7368417;19;20500;-79
2022/10/28 06:20:34;;;;;;;19.40;7.40;;;17.50;73.60;;;;;;7369694;19;20541;-78
2022/10/28 06:23:02;;;;;;;20.05;8.02;;;17.50;73.40;;;;;;7368531;19;20031;-78
2022/10/28 06:25:31;;;;;;;21.00;8.02;;;17.50;73.40;;;;;;7387518;19;20021;-79
2022/10/28 06:28:01;;;;;;;21.80;7.60;;;17.50;73.20;;;;;;7367713;19;20024;-79
2022/10/28 06:30:33;;;;;;;22.25;7.45;;;17.50;73.00;;;;;;7366519;19;20019;-79
2022/10/28 06:33:01;;;;;;;19.85;7.47;;;17.50;73.00;;;;;;7367195;19;20085;-79
2022/10/28 06:35:30;;;;;;;26.23;7.35;;;17.50;73.00;;;;;;7363551;19;20572;-78
2022/10/28 06:37:59;;;;;;;21.25;7.13;;;17.50;73.10;;;;;;7361481;19;20451;-79
2022/10/28 06:40:28;;;;;;;19.55;7.63;;;17.50;73.10;;;;;;7380867;19;20366;-78
2022/10/28 06:43:01;;;;;;;19.17;7.60;;;17.50;73.00;;;;;;7361113;19;20109;-78
2022/10/28 06:45:30;;;;;;;29.20;7.95;;;17.50;72.90;;;;;;7363750;19;20018;-80
2022/10/28 06:48:02;;;;;;;15.57;7.07;;;17.50;73.70;;;;;;7365603;19;20073;-77
2022/10/28 06:50:32;;;;;;;19.85;8.02;;;17.50;73.00;;;;;;7363176;19;20528;-77
2022/10/28 06:53:01;;;;;;;27.42;8.77;;;17.40;73.00;;;;;;7360920;19;20031;-78
2022/10/28 06:55:30;;;;;;;24.13;7.82;;;17.40;73.00;;;;;;7386950;19;20019;-78
2022/10/28 06:58:05;;;;;;;23.48;7.63;;;17.40;73.10;;;;;;7363093;19;20544;-79
2022/10/28 07:00:34;;;;;;;33.90;8.65;;;17.50;73.20;;;;;;7364178;19;20022;-80
2022/10/28 07:03:06;;;;;;;31.60;7.47;;;17.50;73.00;;;;;;7363965;19;20311;-76
2022/10/28 07:05:34;;;;;;;30.52;8.30;;;17.50;73.00;;;;;;7362603;19;20461;-79
2022/10/28 07:08:03;;;;;;;29.38;7.80;;;17.50;73.10;;;;;;7359163;19;20055;-79
2022/10/28 07:10:32;;;;;;;24.38;7.78;;;17.50;73.30;;;;;;7388153;19;20098;-77
2022/10/28 07:13:01;;;;;;;21.55;7.97;;;17.50;73.70;;;;;;7363768;19;20044;-77
2022/10/28 07:15:29;;;;;;;29.27;8.80;;;17.50;73.30;;;;;;7363177;19;20418;-77
2022/10/28 07:18:00;;;;;;;26.23;9.18;;;17.60;72.90;;;;;;7362685;19;20015;-77
2022/10/28 07:20:31;;;;;;;35.88;8.88;;;17.60;72.90;;;;;;7366154;19;20314;-77
2022/10/28 07:23:01;;;;;;;26.42;8.43;;;17.60;73.00;;;;;;7365446;19;20022;-77
2022/10/28 07:25:32;;;;;;;33.17;8.65;;;17.70;73.10;;;;;;7388381;19;20113;-77
2022/10/28 07:28:01;;;;;;;25.92;7.78;;;17.70;73.20;;;;;;7366250;19;20438;-77
2022/10/28 07:30:30;;;;;;;23.17;8.48;;;17.80;73.10;;;;;;7365512;19;20010;-78
2022/10/28 07:33:00;;;;;;;26.63;8.93;;;17.80;72.70;;;;;;7366587;19;20303;-78
2022/10/28 07:35:32;;;;;;;29.88;8.10;;;17.90;72.60;;;;;;7364961;19;20039;-76
2022/10/28 07:38:04;;;;;;;28.15;8.38;;;17.90;72.70;;;;;;7365018;19;20432;-77
2022/10/28 07:40:33;;;;;;;28.63;8.90;;;17.90;72.70;;;;;;7387302;19;20022;-78
2022/10/28 07:43:01;;;;;;;25.92;8.23;;;18.00;72.80;;;;;;7365015;19;20022;-77
2022/10/28 07:45:30;;;;;;;26.10;8.77;;;18.00;73.00;;;;;;7364773;19;20101;-77
2022/10/28 07:47:59;;;;;;;27.73;8.35;;;18.10;73.60;;;;;;7364237;19;20474;-77
2022/10/28 07:50:27;;;;;;;26.92;8.40;;;18.20;73.80;;;;;;7367032;19;20085;-77
2022/10/28 07:52:59;;;;;;;23.45;8.68;;;18.20;73.80;;;;;;7372469;19;20018;-75
2022/10/28 07:55:27;;;;;;;23.02;9.35;;;18.30;73.90;;;;;;7392587;19;20025;-75
2022/10/28 07:57:56;;;;;;;46.53;9.80;;;18.40;74.10;;;;;;7369859;19;20021;-76
2022/10/28 08:00:25;;;;;;;36.55;9.85;;;18.40;74.70;;;;;;7371370;19;20105;-76
2022/10/28 08:02:53;;;;;;;44.75;9.35;;;18.50;74.90;;;;;;7369583;19;20015;-76
2022/10/28 08:05:22;;;;;;;42.78;9.55;;;18.50;75.00;;;;;;7372098;19;20010;-77
2022/10/28 08:07:51;;;;;;;34.03;8.52;;;18.60;75.20;;;;;;7390837;19;20524;-76
2022/10/28 08:10:22;;;;;;;28.33;8.15;;;18.60;75.50;;;;;;7370184;19;20024;-75
2022/10/28 08:12:51;;;;;;;26.58;8.10;;;18.60;75.70;;;;;;7371536;19;20018;-75
2022/10/28 08:15:22;;;;;;;17.80;6.22;;;18.70;76.00;;;;;;7373010;19;20022;-76
2022/10/28 08:17:53;;;;;;;29.23;7.95;;;18.70;76.20;;;;;;7371614;19;20022;-75
2022/10/28 08:20:22;;;;;;;23.77;7.47;;;18.70;76.30;;;;;;7370097;19;20092;-75
2022/10/28 08:22:54;;;;;;;32.65;8.10;;;18.80;76.40;;;;;;7393275;19;20018;-75
2022/10/28 08:25:26;;;;;;;27.90;7.90;;;18.90;76.50;;;;;;7372783;19;20021;-75
2022/10/28 08:27:54;;;;;;;;;;;18.90;76.60;;;;;;7371978;19;20015;-76
2022/10/28 08:30:23;;;;;;;24.58;8.18;;;19.00;76.80;;;;;;7372668;19;19925;-76
2022/10/28 08:32:51;;;;;;;28.48;7.50;;;19.00;76.60;;;;;;7371861;19;20488;-76
2022/10/28 08:35:20;;;;;;;19.92;6.35;;;19.00;76.80;;;;;;7369832;19;20616;-76
2022/10/28 08:37:52;;;;;;;25.60;6.22;;;19.00;76.40;;;;;;7391688;19;20129;-76
2022/10/28 08:40:28;;;;;;;29.40;6.53;;;19.10;76.50;;;;;;7371296;19;20556;-77
2022/10/28 08:43:04;;;;;;;21.10;6.43;;;19.10;76.40;;;;;;7371278;19;20346;-76
2022/10/28 08:45:45;;;;;;;27.08;6.70;;;19.20;76.60;;;;;;7367713;19;20334;-76
2022/10/28 08:48:18;;;;;;;;;;;19.20;76.40;;;;;;7370265;19;20017;-75
2022/10/28 08:50:50;;;;;;;21.75;5.88;;;19.40;76.30;;;;;;7370955;19;20271;-76
2022/10/28 08:53:25;;;;;;;25.30;5.43;;;19.40;75.80;;;;;;7370733;19;20014;-77
2022/10/28 08:56:03;;;;;;;21.13;5.05;;;19.40;74.40;;;;;;7375218;19;20026;-75
2022/10/28 08:58:36;;;;;;;26.83;5.22;;;19.50;73.50;;;;;;7390204;19;20029;-75
2022/10/28 09:01:10;;;;;;;20.08;4.97;;;19.50;72.10;;;;;;7371338;19;20093;-76
2022/10/28 09:03:43;;;;;;;31.23;5.28;;;19.50;72.30;;;;;;7370184;19;20115;-75
2022/10/28 09:06:13;;;;;;;19.77;4.90;;;19.60;72.50;;;;;;7371847;19;20074;-75
2022/10/28 09:08:45;;;;;;;24.67;4.80;;;19.60;72.20;;;;;;7369205;19;20024;-75
2022/10/28 09:11:39;;;;;;;24.85;5.20;;;19.70;71.40;;;;;;7370818;19;20436;-75
2022/10/28 09:14:25;;;;;;;25.33;4.80;;;19.70;71.00;;;;;;7365872;19;20350;-75
2022/10/28 09:17:06;;;;;;;29.02;4.72;;;19.70;71.20;;;;;;7372920;19;20856;-75
2022/10/28 09:19:44;;;;;;;26.75;5.57;;;19.80;70.80;;;;;;7392014;19;20120;-75
2022/10/28 09:22:25;;;;;;;26.80;5.22;;;19.70;70.80;;;;;;7372949;19;20015;-75
2022/10/28 09:24:57;;;;;;;20.25;4.82;;;19.80;70.60;;;;;;7374782;19;20448;-75
2022/10/28 09:27:38;;;;;;;28.98;4.93;;;19.90;70.60;;;;;;7381660;19;20025;-75
2022/10/28 09:30:23;;;;;;;27.25;5.45;;;19.90;70.20;;;;;;7378920;19;20010;-75
2022/10/28 09:33:02;;;;;;;17.65;5.25;;;20.00;70.40;;;;;;7374487;19;20064;-76
2022/10/28 09:35:37;;;;;;;23.55;5.00;;;20.10;70.80;;;;;;7372836;19;20017;-76
2022/10/28 09:38:15;;;;;;;27.92;5.22;;;20.20;70.70;;;;;;7369305;19;20025;-77
2022/10/28 09:40:48;;;;;;;25.77;4.97;;;20.20;70.70;;;;;;7389252;19;20098;-75
2022/10/28 09:43:26;;;;;;;27.75;6.00;;;20.20;70.50;;;;;;7367785;19;20304;-76
2022/10/28 09:46:01;;;;;;;25.40;5.45;;;20.10;70.90;;;;;;7369443;19;20105;-76
2022/10/28 09:48:33;;;;;;;33.92;5.63;;;20.20;71.00;;;;;;7369303;19;20445;-75
2022/10/28 09:51:02;;;;;;;23.35;5.28;;;20.30;71.00;;;;;;7368564;19;20025;-76
2022/10/28 09:53:40;;;;;;;18.00;5.35;;;20.40;71.10;;;;;;7369596;19;20020;-76
2022/10/28 09:56:09;;;;;;;32.53;5.82;;;20.30;71.60;;;;;;7370220;19;20028;-76
2022/10/28 09:58:46;;;;;;;26.25;5.72;;;20.40;71.20;;;;;;7390265;19;20033;-76
2022/10/28 10:01:15;;;;;;;25.10;6.20;;;20.40;71.10;;;;;;7368866;19;20606;-75
2022/10/28 10:03:44;;;;;;;23.58;5.93;;;20.50;70.90;;;;;;7369135;19;20014;-76
2022/10/28 10:06:15;;;;;;;30.30;6.95;;;20.50;70.90;;;;;;7369650;19;20010;-77
2022/10/28 10:08:44;;;;;;;25.92;6.32;;;20.50;70.90;;;;;;7370411;19;20010;-76
2022/10/28 10:11:22;;;;;;;25.88;7.50;;;20.40;70.90;;;;;;7370683;19;20103;-74
2022/10/28 10:13:55;;;;;;;30.58;7.35;;;20.40;71.20;;;;;;7387392;19;20320;-75
2022/10/28 10:16:35;;;;;;;25.25;7.10;;;20.50;71.10;;;;;;7368358;19;20036;-75
2022/10/28 10:19:07;;;;;;;26.55;7.40;;;20.50;71.10;;;;;;7367063;19;20518;-75
2022/10/28 10:21:44;;;;;;;26.30;7.07;;;20.60;70.90;;;;;;7368833;19;20078;-75
2022/10/28 10:24:31;;;;;;;28.83;7.18;;;20.60;71.20;;;;;;7368692;19;20458;-75
2022/10/28 10:27:03;;;;;;;27.70;6.95;;;20.60;71.30;;;;;;7369181;19;20018;-75
2022/10/28 10:29:37;;;;;;;28.13;7.20;;;20.60;71.50;;;;;;7369006;19;20089;-75
2022/10/28 10:32:09;;;;;;;20.05;6.25;;;20.60;71.30;;;;;;7368470;19;20022;-76
2022/10/28 10:34:38;;;;;;;32.55;8.90;;;20.60;71.30;;;;;;7388954;19;20106;-77
2022/10/28 10:37:07;;;;;;;27.17;6.22;;;20.70;71.40;;;;;;7365854;19;20021;-76
2022/10/28 10:39:38;;;;;;;24.92;7.07;;;20.60;71.60;;;;;;7367091;19;20017;-76
2022/10/28 10:42:19;;;;;;;29.42;7.30;;;20.70;71.60;;;;;;7365906;19;20078;-76
2022/10/28 10:45:01;;;;;;;27.90;6.78;;;20.60;71.50;;;;;;7366986;19;20019;-75
2022/10/28 10:47:30;;;;;;;30.20;7.00;;;20.60;71.90;;;;;;7366733;19;20735;-76
2022/10/28 10:50:22;;;;;;;24.35;5.97;;;20.80;71.60;;;;;;7365966;19;20014;-76
2022/10/28 10:52:56;;;;;;;21.10;5.78;;;20.90;71.30;;;;;;7391510;19;20019;-76
2022/10/28 10:55:33;;;;;;;23.60;6.05;;;20.80;71.60;;;;;;7367834;19;20042;-76
2022/10/28 10:58:02;;;;;;;25.95;7.85;;;20.90;71.30;;;;;;7363662;19;20032;-76
2022/10/28 11:00:38;;;;;;;21.35;6.43;;;21.00;71.20;;;;;;7367134;19;20026;-77
2022/10/28 11:03:08;;;;;;;22.65;6.72;;;21.10;71.30;;;;;;7373675;19;20020;-76
2022/10/28 11:05:37;;;;;;;22.98;5.88;;;21.20;71.10;;;;;;7369386;19;20050;-76
2022/10/28 11:08:06;;;;;;;27.58;6.38;;;21.20;71.10;;;;;;7367737;19;20029;-77
2022/10/28 11:10:36;;;;;;;28.98;5.95;;;21.30;71.00;;;;;;7389662;19;20363;-77
2022/10/28 11:13:25;;;;;;;25.52;6.68;;;21.30;70.90;;;;;;7366476;19;20014;-77
2022/10/28 11:16:05;;;;;;;30.50;6.22;;;21.30;71.00;;;;;;7367138;19;20073;-77
2022/10/28 11:18:43;;;;;;;33.13;6.22;;;21.30;71.10;;;;;;7365681;19;20110;-76
2022/10/28 11:21:35;;;;;;;27.80;6.05;;;21.40;71.40;;;;;;7370420;19;20018;-76
2022/10/28 11:24:24;;;;;;;36.58;7.07;;;21.40;71.30;;;;;;7377237;19;20019;-77
2022/10/28 11:27:00;;;;;;;19.52;5.97;;;21.40;71.40;;;;;;7378179;19;20035;-76
2022/10/28 11:29:29;;;;;;;24.63;5.50;;;21.40;71.00;;;;;;7375521;19;20097;-76
2022/10/28 11:32:14;;;;;;;22.80;6.20;;;21.40;71.10;;;;;;7373362;19;20814;-77
2022/10/28 11:35:04;;;;;;;26.58;6.25;;;21.40;71.20;;;;;;7393544;19;20022;-77
2022/10/28 11:37:45;;;;;;;27.80;6.57;;;21.50;71.00;;;;;;7375624;19;20020;-77
2022/10/28 11:40:31;;;;;;;24.50;6.85;;;21.50;70.40;;;;;;7373035;19;20038;-78
2022/10/28 11:43:15;;;;;;;29.15;6.65;;;21.50;70.70;;;;;;7372842;19;20021;-75
2022/10/28 11:45:50;;;;;;;29.05;6.80;;;21.50;71.10;;;;;;7372901;19;20027;-75
2022/10/28 11:48:37;;;;;;;20.40;5.70;;;21.60;70.60;;;;;;7373881;19;20123;-76
2022/10/28 11:51:18;;;;;;;26.73;6.28;;;21.60;70.70;;;;;;7373493;19;20017;-76
2022/10/28 11:54:01;;;;;;;25.38;6.68;;;21.70;70.60;;;;;;7371326;19;20039;-76
2022/10/28 11:56:36;;;;;;;23.60;6.90;;;21.90;70.80;;;;;;7373273;19;20085;-76
2022/10/28 11:59:41;;;;;;;20.85;6.60;;;21.90;70.00;;;;;;7369897;19;20035;-77
2022/10/28 12:02:28;;;;;;;27.25;6.72;;;22.00;70.10;;;;;;7374208;19;20025;-76
2022/10/28 12:05:09;;;;;;;30.85;6.57;;;21.90;69.50;;;;;;7371391;19;20023;-77
2022/10/28 12:07:52;;;;;;;31.05;5.95;;;22.10;69.70;;;;;;7390694;19;20094;-76
2022/10/28 12:10:48;;;;;;;20.67;6.68;;;22.20;69.60;;;;;;7372765;19;20021;-76
2022/10/28 12:13:30;;;;;;;23.10;6.00;;;22.20;69.60;;;;;;7370683;19;20022;-77
2022/10/28 12:16:06;;;;;;;21.48;6.60;;;22.20;69.60;;;;;;7371389;19;20026;-76
2022/10/28 12:18:39;;;;;;;23.33;6.53;;;22.30;70.00;;;;;;7371447;19;20020;-81
2022/10/28 12:21:17;;;;;;;25.77;6.43;;;22.20;69.70;;;;;;7373833;19;20395;-80
2022/10/28 12:23:46;;;;;;;25.38;6.15;;;22.20;70.00;;;;;;7373890;19;20342;-80
2022/10/28 12:26:18;;;;;;;24.75;6.60;;;22.30;69.80;;;;;;7373696;19;20442;-79
2022/10/28 12:28:50;;;;;;;26.23;6.38;;;22.10;70.30;;;;;;7393050;19;20014;-80
2022/10/28 12:31:25;;;;;;;24.15;6.28;;;22.20;70.00;;;;;;7372273;19;20038;-77
2022/10/28 12:33:59;;;;;;;21.52;6.80;;;22.30;69.60;;;;;;7371099;19;20061;-77
2022/10/28 12:36:38;;;;;;;21.25;7.50;;;22.30;69.60;;;;;;7371054;19;20613;-79
2022/10/28 12:39:14;;;;;;;27.73;6.22;;;22.40;69.70;;;;;;7371467;19;20031;-77
2022/10/28 12:41:52;;;;;;;23.27;6.10;;;22.50;69.40;;;;;;7372622;19;20025;-77
2022/10/28 12:44:22;;;;;;;22.73;5.78;;;22.50;69.30;;;;;;7372148;19;20816;-76
2022/10/28 12:47:05;;;;;;;24.47;6.67;;;22.50;69.30;;;;;;7393962;19;20019;-76
2022/10/28 12:49:44;;;;;;;31.20;6.28;;;22.50;69.50;;;;;;7371251;19;20018;-76
2022/10/28 12:52:25;;;;;;;25.92;5.95;;;22.50;69.50;;;;;;7372119;19;20014;-76
2022/10/28 12:55:01;;;;;;;21.83;5.43;;;22.60;69.40;;;;;;7370321;19;20442;-77
2022/10/28 12:57:32;;;;;;;21.52;6.00;;;22.60;69.20;;;;;;7371145;19;20483;-76
2022/10/28 13:00:02;;;;;;;;;;;22.70;69.20;;;;;;7371436;19;20011;-76
2022/10/28 13:02:33;;;;;;;20.75;6.32;;;22.80;69.30;;;;;;7372797;19;19990;-76
2022/10/28 13:05:02;;;;;;;20.23;6.18;;;22.80;69.20;;;;;;7372106;19;20015;-77
2022/10/28 13:07:54;;;;;;;25.05;7.03;;;22.80;69.40;;;;;;7391731;19;20025;-77
2022/10/28 13:10:32;;;;;;;15.38;5.60;;;22.90;69.70;;;;;;7370592;19;20014;-77